sensor_id;sensor_type;location;lat;lon;timestamp;P1;durP1;ratioP1;P2;durP2;ratioP2
4313;SDS011;2170;48.794;9.182;2023-09-18T01:18:27;5.40;;;4.30;;
4313;SDS011;2170;48.794;9.182;2023-09-18T01:21:42;5.47;;;4.17;;
4313;SDS011;2170;48.794;9.182;2023-09-18T01:35:40;4.67;;;4.27;;
4313;SDS011;2170;48.794;9.182;2023-09-18T01:39:28;5.90;;;4.60;;
4313;SDS011;2170;48.794;9.182;2023-09-18T01:42:41;4.77;;;4.33;;
4313;SDS011;2170;48.794;9.182;2023-09-18T02:08:11;7.00;;;3.23;;
4313;SDS011;2170;48.794;9.182;2023-09-18T02:10:50;4.00;;;3.13;;
4313;SDS011;2170;48.794;9.182;2023-09-18T02:15:03;8.30;;;3.80;;
4313;SDS011;2170;48.794;9.182;2023-09-18T02:17:14;7.27;;;3.23;;
4313;SDS011;2170;48.794;9.182;2023-09-18T02:20:08;4.83;;;3.60;;
4313;SDS011;2170;48.794;9.182;2023-09-18T02:23:31;6.37;;;3.30;;
4313;SDS011;2170;48.794;9.182;2023-09-18T02:26:40;6.67;;;3.50;;
4313;SDS011;2170;48.794;9.182;2023-09-18T02:32:46;9.40;;;3.20;;
4313;SDS011;2170;48.794;9.182;2023-09-18T02:39:48;14.60;;;3.73;;
4313;SDS011;2170;48.794;9.182;2023-09-18T02:46:56;5.80;;;3.10;;
4313;SDS011;2170;48.794;9.182;2023-09-18T02:49:59;6.73;;;3.10;;
4313;SDS011;2170;48.794;9.182;2023-09-18T02:53:13;8.87;;;3.20;;
4313;SDS011;2170;48.794;9.182;2023-09-18T02:59:20;9.60;;;3.77;;
4313;SDS011;2170;48.794;9.182;2023-09-18T03:02:23;8.70;;;3.30;;
4313;SDS011;2170;48.794;9.182;2023-09-18T03:08:32;13.83;;;3.67;;
4313;SDS011;2170;48.794;9.182;2023-09-18T03:15:08;5.80;;;3.13;;
4313;SDS011;2170;48.794;9.182;2023-09-18T03:17:59;7.70;;;3.40;;
4313;SDS011;2170;48.794;9.182;2023-09-18T03:21:04;6.03;;;3.30;;
4313;SDS011;2170;48.794;9.182;2023-09-18T03:24:21;8.13;;;3.10;;
4313;SDS011;2170;48.794;9.182;2023-09-18T03:30:28;8.70;;;3.20;;
4313;SDS011;2170;48.794;9.182;2023-09-18T03:33:37;6.27;;;3.40;;
4313;SDS011;2170;48.794;9.182;2023-09-18T03:36:47;7.43;;;3.20;;
4313;SDS011;2170;48.794;9.182;2023-09-18T03:39:39;6.30;;;3.27;;
4313;SDS011;2170;48.794;9.182;2023-09-18T03:42:54;7.53;;;3.80;;
4313;SDS011;2170;48.794;9.182;2023-09-18T03:45:39;9.60;;;3.53;;
4313;SDS011;2170;48.794;9.182;2023-09-18T03:48:38;10.73;;;3.50;;
4313;SDS011;2170;48.794;9.182;2023-09-18T03:54:31;10.07;;;3.40;;
4313;SDS011;2170;48.794;9.182;2023-09-18T04:01:08;7.33;;;2.63;;
4313;SDS011;2170;48.794;9.182;2023-09-18T05:03:18;6.97;;;4.40;;
4313;SDS011;2170;48.794;9.182;2023-09-18T05:06:32;9.23;;;4.43;;
4313;SDS011;2170;48.794;9.182;2023-09-18T05:09:41;7.93;;;4.40;;
4313;SDS011;2170;48.794;9.182;2023-09-18T05:16:05;10.10;;;4.93;;
4313;SDS011;2170;48.794;9.182;2023-09-18T05:19:15;7.27;;;4.83;;
4313;SDS011;2170;48.794;9.182;2023-09-18T05:22:13;9.13;;;4.27;;
4313;SDS011;2170;48.794;9.182;2023-09-18T05:25:42;9.10;;;5.10;;
4313;SDS011;2170;48.794;9.182;2023-09-18T05:31:53;5.53;;;3.70;;
4313;SDS011;2170;48.794;9.182;2023-09-18T05:35:18;8.20;;;2.83;;
4313;SDS011;2170;48.794;9.182;2023-09-18T05:44:32;7.47;;;3.20;;
4313;SDS011;2170;48.794;9.182;2023-09-18T05:47:26;8.40;;;2.70;;
4313;SDS011;2170;48.794;9.182;2023-09-18T05:50:40;6.23;;;3.53;;
4313;SDS011;2170;48.794;9.182;2023-09-18T05:53:40;5.03;;;3.00;;
4313;SDS011;2170;48.794;9.182;2023-09-18T05:57:08;8.10;;;4.13;;
4313;SDS011;2170;48.794;9.182;2023-09-18T06:13:11;7.83;;;3.77;;
4313;SDS011;2170;48.794;9.182;2023-09-18T06:25:03;7.87;;;4.60;;
4313;SDS011;2170;48.794;9.182;2023-09-18T06:27:18;6.10;;;3.63;;
4313;SDS011;2170;48.794;9.182;2023-09-18T06:30:25;9.30;;;3.40;;
4313;SDS011;2170;48.794;9.182;2023-09-18T06:33:06;12.03;;;3.60;;
4313;SDS011;2170;48.794;9.182;2023-09-18T06:35:58;6.40;;;4.23;;
4313;SDS011;2170;48.794;9.182;2023-09-18T06:38:44;6.73;;;3.80;;
4313;SDS011;2170;48.794;9.182;2023-09-18T06:41:28;7.43;;;3.80;;
4313;SDS011;2170;48.794;9.182;2023-09-18T06:48:18;10.17;;;3.57;;
4313;SDS011;2170;48.794;9.182;2023-09-18T06:50:59;11.63;;;4.40;;
4313;SDS011;2170;48.794;9.182;2023-09-18T06:53:43;8.07;;;3.53;;
4313;SDS011;2170;48.794;9.182;2023-09-18T06:56:21;5.97;;;3.80;;
4313;SDS011;2170;48.794;9.182;2023-09-18T06:59:10;6.10;;;3.57;;
4313;SDS011;2170;48.794;9.182;2023-09-18T07:04:46;7.47;;;3.60;;
4313;SDS011;2170;48.794;9.182;2023-09-18T07:07:24;8.80;;;3.60;;
4313;SDS011;2170;48.794;9.182;2023-09-18T07:10:09;8.40;;;3.13;;
4313;SDS011;2170;48.794;9.182;2023-09-18T07:12:48;5.43;;;4.00;;
4313;SDS011;2170;48.794;9.182;2023-09-18T07:15:32;7.33;;;3.50;;
4313;SDS011;2170;48.794;9.182;2023-09-18T07:18:04;8.83;;;3.37;;
4313;SDS011;2170;48.794;9.182;2023-09-18T07:20:37;5.40;;;3.40;;
4313;SDS011;2170;48.794;9.182;2023-09-18T07:23:20;4.90;;;3.10;;
4313;SDS011;2170;48.794;9.182;2023-09-18T07:25:55;6.43;;;3.70;;
4313;SDS011;2170;48.794;9.182;2023-09-18T07:28:35;5.53;;;2.80;;
4313;SDS011;2170;48.794;9.182;2023-09-18T07:31:18;5.20;;;2.67;;
4313;SDS011;2170;48.794;9.182;2023-09-18T07:34:25;4.63;;;2.30;;
4313;SDS011;2170;48.794;9.182;2023-09-18T07:37:08;8.60;;;2.10;;
4313;SDS011;2170;48.794;9.182;2023-09-18T07:39:48;1.80;;;1.70;;
4313;SDS011;2170;48.794;9.182;2023-09-18T07:42:23;3.27;;;1.53;;
4313;SDS011;2170;48.794;9.182;2023-09-18T07:44:58;5.80;;;1.70;;
4313;SDS011;2170;48.794;9.182;2023-09-18T07:47:45;4.13;;;1.90;;
4313;SDS011;2170;48.794;9.182;2023-09-18T07:50:32;3.00;;;1.40;;
4313;SDS011;2170;48.794;9.182;2023-09-18T07:53:05;1.90;;;1.40;;
4313;SDS011;2170;48.794;9.182;2023-09-18T07:55:38;4.57;;;1.63;;
4313;SDS011;2170;48.794;9.182;2023-09-18T07:58:18;1.73;;;1.23;;
4313;SDS011;2170;48.794;9.182;2023-09-18T08:04:01;3.03;;;1.40;;
4313;SDS011;2170;48.794;9.182;2023-09-18T08:06:55;3.37;;;1.97;;
4313;SDS011;2170;48.794;9.182;2023-09-18T08:09:30;2.60;;;1.60;;
4313;SDS011;2170;48.794;9.182;2023-09-18T08:12:17;2.50;;;1.20;;
4313;SDS011;2170;48.794;9.182;2023-09-18T08:14:48;2.33;;;1.20;;
4313;SDS011;2170;48.794;9.182;2023-09-18T08:17:37;5.00;;;1.23;;
4313;SDS011;2170;48.794;9.182;2023-09-18T08:20:14;2.03;;;1.10;;
4313;SDS011;2170;48.794;9.182;2023-09-18T08:22:47;1.90;;;1.33;;
4313;SDS011;2170;48.794;9.182;2023-09-18T08:28:52;2.60;;;1.20;;
4313;SDS011;2170;48.794;9.182;2023-09-18T08:31:32;1.83;;;1.60;;
4313;SDS011;2170;48.794;9.182;2023-09-18T08:34:16;3.83;;;1.30;;
4313;SDS011;2170;48.794;9.182;2023-09-18T08:37:17;4.43;;;1.67;;
4313;SDS011;2170;48.794;9.182;2023-09-18T08:40:02;2.90;;;1.73;;
4313;SDS011;2170;48.794;9.182;2023-09-18T08:43:22;3.13;;;1.63;;
4313;SDS011;2170;48.794;9.182;2023-09-18T08:45:58;4.00;;;1.70;;
4313;SDS011;2170;48.794;9.182;2023-09-18T08:48:58;1.87;;;1.40;;
4313;SDS011;2170;48.794;9.182;2023-09-18T08:51:40;1.40;;;1.30;;
4313;SDS011;2170;48.794;9.182;2023-09-18T08:54:25;1.90;;;1.40;;
4313;SDS011;2170;48.794;9.182;2023-09-18T08:57:17;3.80;;;1.73;;
4313;SDS011;2170;48.794;9.182;2023-09-18T09:00:02;3.30;;;1.30;;
4313;SDS011;2170;48.794;9.182;2023-09-18T09:02:51;2.60;;;1.80;;
4313;SDS011;2170;48.794;9.182;2023-09-18T09:05:28;2.13;;;1.47;;
4313;SDS011;2170;48.794;9.182;2023-09-18T09:08:09;2.17;;;1.33;;
4313;SDS011;2170;48.794;9.182;2023-09-18T09:10:45;2.57;;;1.93;;
4313;SDS011;2170;48.794;9.182;2023-09-18T09:13:24;1.60;;;1.23;;
4313;SDS011;2170;48.794;9.182;2023-09-18T09:19:18;2.43;;;1.20;;
4313;SDS011;2170;48.794;9.182;2023-09-18T09:22:22;1.90;;;1.53;;
4313;SDS011;2170;48.794;9.182;2023-09-18T09:24:59;3.67;;;1.40;;
4313;SDS011;2170;48.794;9.182;2023-09-18T09:27:42;2.07;;;1.67;;
4313;SDS011;2170;48.794;9.182;2023-09-18T09:34:01;3.47;;;1.67;;
4313;SDS011;2170;48.794;9.182;2023-09-18T09:36:43;2.87;;;1.23;;
4313;SDS011;2170;48.794;9.182;2023-09-18T09:39:32;1.70;;;1.50;;
4313;SDS011;2170;48.794;9.182;2023-09-18T09:42:03;2.30;;;1.30;;
4313;SDS011;2170;48.794;9.182;2023-09-18T09:44:34;2.97;;;1.83;;
4313;SDS011;2170;48.794;9.182;2023-09-18T09:47:06;1.83;;;1.43;;
4313;SDS011;2170;48.794;9.182;2023-09-18T09:49:46;3.97;;;1.60;;
4313;SDS011;2170;48.794;9.182;2023-09-18T09:52:22;1.90;;;1.40;;
4313;SDS011;2170;48.794;9.182;2023-09-18T09:55:00;2.00;;;1.83;;
4313;SDS011;2170;48.794;9.182;2023-09-18T09:57:31;2.70;;;1.60;;
4313;SDS011;2170;48.794;9.182;2023-09-18T10:00:17;3.90;;;1.87;;
4313;SDS011;2170;48.794;9.182;2023-09-18T10:02:59;5.13;;;1.90;;
4313;SDS011;2170;48.794;9.182;2023-09-18T10:05:40;2.50;;;1.87;;
4313;SDS011;2170;48.794;9.182;2023-09-18T10:08:16;1.93;;;1.80;;
4313;SDS011;2170;48.794;9.182;2023-09-18T10:10:47;2.87;;;1.93;;
4313;SDS011;2170;48.794;9.182;2023-09-18T10:13:32;1.70;;;1.60;;
4313;SDS011;2170;48.794;9.182;2023-09-18T10:16:06;1.60;;;1.43;;
4313;SDS011;2170;48.794;9.182;2023-09-18T10:18:45;3.13;;;1.43;;
4313;SDS011;2170;48.794;9.182;2023-09-18T10:24:51;3.73;;;1.60;;
4313;SDS011;2170;48.794;9.182;2023-09-18T10:27:27;4.27;;;1.70;;
4313;SDS011;2170;48.794;9.182;2023-09-18T10:29:59;1.67;;;1.57;;
4313;SDS011;2170;48.794;9.182;2023-09-18T10:32:31;6.53;;;3.67;;
4313;SDS011;2170;48.794;9.182;2023-09-18T10:35:00;3.13;;;2.53;;
4313;SDS011;2170;48.794;9.182;2023-09-18T10:37:35;1.67;;;1.57;;
4313;SDS011;2170;48.794;9.182;2023-09-18T10:40:28;5.30;;;2.50;;
4313;SDS011;2170;48.794;9.182;2023-09-18T10:43:23;4.73;;;1.90;;
4313;SDS011;2170;48.794;9.182;2023-09-18T10:46:14;4.83;;;3.50;;
4313;SDS011;2170;48.794;9.182;2023-09-18T10:49:09;3.07;;;1.50;;
4313;SDS011;2170;48.794;9.182;2023-09-18T11:28:12;2.27;;;2.00;;
4313;SDS011;2170;48.794;9.182;2023-09-18T11:30:50;2.63;;;2.07;;
4313;SDS011;2170;48.794;9.182;2023-09-18T11:33:35;4.23;;;2.17;;
4313;SDS011;2170;48.794;9.182;2023-09-18T11:36:29;3.67;;;2.20;;
4313;SDS011;2170;48.794;9.182;2023-09-18T11:39:07;2.90;;;1.80;;
4313;SDS011;2170;48.794;9.182;2023-09-18T11:41:49;4.63;;;4.23;;
4313;SDS011;2170;48.794;9.182;2023-09-18T11:44:52;2.77;;;2.07;;
4313;SDS011;2170;48.794;9.182;2023-09-18T11:47:26;1.97;;;1.87;;
4313;SDS011;2170;48.794;9.182;2023-09-18T11:49:58;3.50;;;2.10;;
4313;SDS011;2170;48.794;9.182;2023-09-18T11:52:27;2.57;;;1.67;;
4313;SDS011;2170;48.794;9.182;2023-09-18T11:55:05;1.90;;;1.40;;
4313;SDS011;2170;48.794;9.182;2023-09-18T11:57:39;2.20;;;1.57;;
4313;SDS011;2170;48.794;9.182;2023-09-18T12:00:20;2.30;;;1.50;;
4313;SDS011;2170;48.794;9.182;2023-09-18T12:06:18;3.00;;;1.90;;
4313;SDS011;2170;48.794;9.182;2023-09-18T12:09:09;2.03;;;1.83;;
4313;SDS011;2170;48.794;9.182;2023-09-18T12:12:44;2.00;;;1.57;;
4313;SDS011;2170;48.794;9.182;2023-09-18T12:15:24;5.43;;;1.70;;
4313;SDS011;2170;48.794;9.182;2023-09-18T12:18:04;5.07;;;3.17;;
4313;SDS011;2170;48.794;9.182;2023-09-18T12:20:34;9.33;;;7.20;;
4313;SDS011;2170;48.794;9.182;2023-09-18T12:23:12;2.33;;;2.10;;
4313;SDS011;2170;48.794;9.182;2023-09-18T12:25:45;3.40;;;1.53;;
4313;SDS011;2170;48.794;9.182;2023-09-18T12:28:17;1.70;;;1.40;;
4313;SDS011;2170;48.794;9.182;2023-09-18T12:30:47;1.77;;;1.30;;
4313;SDS011;2170;48.794;9.182;2023-09-18T12:33:21;1.87;;;1.53;;
4313;SDS011;2170;48.794;9.182;2023-09-18T12:35:50;1.83;;;1.47;;
4313;SDS011;2170;48.794;9.182;2023-09-18T12:38:19;3.23;;;1.43;;
4313;SDS011;2170;48.794;9.182;2023-09-18T12:40:55;1.37;;;1.27;;
4313;SDS011;2170;48.794;9.182;2023-09-18T12:43:31;1.80;;;1.50;;
4313;SDS011;2170;48.794;9.182;2023-09-18T12:46:03;1.93;;;1.40;;
4313;SDS011;2170;48.794;9.182;2023-09-18T12:48:36;2.27;;;1.63;;
4313;SDS011;2170;48.794;9.182;2023-09-18T12:51:13;2.87;;;1.70;;
4313;SDS011;2170;48.794;9.182;2023-09-18T12:53:58;1.70;;;1.60;;
4313;SDS011;2170;48.794;9.182;2023-09-18T12:56:32;3.07;;;1.40;;
4313;SDS011;2170;48.794;9.182;2023-09-18T12:59:02;2.70;;;2.00;;
4313;SDS011;2170;48.794;9.182;2023-09-18T13:01:34;2.13;;;1.60;;
4313;SDS011;2170;48.794;9.182;2023-09-18T13:04:11;1.63;;;1.53;;
4313;SDS011;2170;48.794;9.182;2023-09-18T13:07:09;2.00;;;1.50;;
4313;SDS011;2170;48.794;9.182;2023-09-18T13:10:26;2.93;;;1.77;;
4313;SDS011;2170;48.794;9.182;2023-09-18T13:13:06;3.07;;;1.40;;
4313;SDS011;2170;48.794;9.182;2023-09-18T13:15:59;4.10;;;1.50;;
4313;SDS011;2170;48.794;9.182;2023-09-18T13:18:38;1.47;;;1.37;;
4313;SDS011;2170;48.794;9.182;2023-09-18T13:21:11;1.63;;;1.43;;
4313;SDS011;2170;48.794;9.182;2023-09-18T13:23:46;1.40;;;1.30;;
4313;SDS011;2170;48.794;9.182;2023-09-18T13:29:20;1.50;;;1.40;;
4313;SDS011;2170;48.794;9.182;2023-09-18T13:32:10;1.67;;;1.27;;
4313;SDS011;2170;48.794;9.182;2023-09-18T13:35:29;1.93;;;1.77;;
4313;SDS011;2170;48.794;9.182;2023-09-18T13:37:56;6.73;;;1.90;;
4313;SDS011;2170;48.794;9.182;2023-09-18T13:40:23;1.47;;;1.27;;
4313;SDS011;2170;48.794;9.182;2023-09-18T13:42:50;2.27;;;1.70;;
4313;SDS011;2170;48.794;9.182;2023-09-18T13:45:16;1.80;;;1.37;;
4313;SDS011;2170;48.794;9.182;2023-09-18T13:47:43;1.70;;;1.30;;
4313;SDS011;2170;48.794;9.182;2023-09-18T13:50:10;2.57;;;1.50;;
4313;SDS011;2170;48.794;9.182;2023-09-18T13:52:39;3.10;;;1.50;;
4313;SDS011;2170;48.794;9.182;2023-09-18T13:55:06;3.27;;;1.67;;
4313;SDS011;2170;48.794;9.182;2023-09-18T13:57:34;1.03;;;0.93;;
4313;SDS011;2170;48.794;9.182;2023-09-18T14:00:02;2.83;;;1.53;;
4313;SDS011;2170;48.794;9.182;2023-09-18T14:02:31;3.37;;;1.50;;
4313;SDS011;2170;48.794;9.182;2023-09-18T14:04:58;2.20;;;1.47;;
4313;SDS011;2170;48.794;9.182;2023-09-18T14:07:25;1.83;;;1.30;;
4313;SDS011;2170;48.794;9.182;2023-09-18T14:09:54;2.73;;;1.50;;
4313;SDS011;2170;48.794;9.182;2023-09-18T14:12:21;2.83;;;1.43;;
4313;SDS011;2170;48.794;9.182;2023-09-18T14:14:47;1.53;;;1.43;;
4313;SDS011;2170;48.794;9.182;2023-09-18T14:17:14;1.40;;;1.30;;
4313;SDS011;2170;48.794;9.182;2023-09-18T14:19:43;1.70;;;1.30;;
4313;SDS011;2170;48.794;9.182;2023-09-18T14:22:10;2.20;;;1.53;;
4313;SDS011;2170;48.794;9.182;2023-09-18T14:24:36;3.13;;;1.50;;
4313;SDS011;2170;48.794;9.182;2023-09-18T14:27:04;1.80;;;1.70;;
4313;SDS011;2170;48.794;9.182;2023-09-18T14:29:31;2.60;;;1.80;;
4313;SDS011;2170;48.794;9.182;2023-09-18T14:31:58;1.57;;;1.20;;
4313;SDS011;2170;48.794;9.182;2023-09-18T14:34:25;1.30;;;1.20;;
4313;SDS011;2170;48.794;9.182;2023-09-18T14:36:52;3.43;;;1.30;;
4313;SDS011;2170;48.794;9.182;2023-09-18T14:39:18;1.63;;;1.40;;
4313;SDS011;2170;48.794;9.182;2023-09-18T14:41:45;1.50;;;1.40;;
4313;SDS011;2170;48.794;9.182;2023-09-18T14:44:14;1.90;;;1.30;;
4313;SDS011;2170;48.794;9.182;2023-09-18T14:46:41;1.63;;;1.50;;
4313;SDS011;2170;48.794;9.182;2023-09-18T14:49:08;2.87;;;1.50;;
4313;SDS011;2170;48.794;9.182;2023-09-18T14:51:35;1.80;;;1.70;;
4313;SDS011;2170;48.794;9.182;2023-09-18T14:54:02;2.97;;;1.73;;
4313;SDS011;2170;48.794;9.182;2023-09-18T14:56:29;1.80;;;1.40;;
4313;SDS011;2170;48.794;9.182;2023-09-18T14:58:56;2.77;;;1.50;;
4313;SDS011;2170;48.794;9.182;2023-09-18T15:01:24;2.07;;;1.40;;
4313;SDS011;2170;48.794;9.182;2023-09-18T15:03:51;1.57;;;1.47;;
4313;SDS011;2170;48.794;9.182;2023-09-18T15:06:18;1.47;;;1.30;;
4313;SDS011;2170;48.794;9.182;2023-09-18T15:08:44;1.30;;;1.20;;
4313;SDS011;2170;48.794;9.182;2023-09-18T15:11:12;2.83;;;1.53;;
4313;SDS011;2170;48.794;9.182;2023-09-18T15:13:42;1.30;;;1.30;;
4313;SDS011;2170;48.794;9.182;2023-09-18T15:16:08;3.00;;;1.30;;
4313;SDS011;2170;48.794;9.182;2023-09-18T15:18:36;1.40;;;1.20;;
4313;SDS011;2170;48.794;9.182;2023-09-18T15:21:04;1.57;;;1.13;;
4313;SDS011;2170;48.794;9.182;2023-09-18T15:23:31;2.33;;;1.57;;
4313;SDS011;2170;48.794;9.182;2023-09-18T15:25:57;2.70;;;1.50;;
4313;SDS011;2170;48.794;9.182;2023-09-18T15:28:24;1.40;;;1.30;;
4313;SDS011;2170;48.794;9.182;2023-09-18T15:30:54;1.70;;;1.60;;
4313;SDS011;2170;48.794;9.182;2023-09-18T15:33:21;2.50;;;1.30;;
4313;SDS011;2170;48.794;9.182;2023-09-18T15:35:49;1.43;;;1.33;;
4313;SDS011;2170;48.794;9.182;2023-09-18T15:38:18;1.93;;;1.30;;
4313;SDS011;2170;48.794;9.182;2023-09-18T15:40:45;1.50;;;1.40;;
4313;SDS011;2170;48.794;9.182;2023-09-18T15:43:12;2.50;;;1.67;;
4313;SDS011;2170;48.794;9.182;2023-09-18T15:45:39;3.10;;;2.00;;
4313;SDS011;2170;48.794;9.182;2023-09-18T15:48:07;2.47;;;1.70;;
4313;SDS011;2170;48.794;9.182;2023-09-18T15:50:34;4.10;;;1.37;;
4313;SDS011;2170;48.794;9.182;2023-09-18T15:53:02;2.80;;;1.60;;
4313;SDS011;2170;48.794;9.182;2023-09-18T15:55:29;1.20;;;1.10;;
4313;SDS011;2170;48.794;9.182;2023-09-18T15:57:56;4.10;;;1.50;;
4313;SDS011;2170;48.794;9.182;2023-09-18T16:00:22;2.17;;;1.27;;
4313;SDS011;2170;48.794;9.182;2023-09-18T16:02:49;1.40;;;1.30;;
4313;SDS011;2170;48.794;9.182;2023-09-18T16:05:16;2.70;;;1.53;;
4313;SDS011;2170;48.794;9.182;2023-09-18T16:07:50;1.27;;;1.17;;
4313;SDS011;2170;48.794;9.182;2023-09-18T16:10:19;2.20;;;1.67;;
4313;SDS011;2170;48.794;9.182;2023-09-18T16:12:46;1.40;;;1.40;;
4313;SDS011;2170;48.794;9.182;2023-09-18T16:15:12;1.43;;;1.33;;
4313;SDS011;2170;48.794;9.182;2023-09-18T16:17:39;1.60;;;1.50;;
4313;SDS011;2170;48.794;9.182;2023-09-18T16:20:06;2.33;;;1.60;;
4313;SDS011;2170;48.794;9.182;2023-09-18T16:22:33;1.60;;;1.43;;
4313;SDS011;2170;48.794;9.182;2023-09-18T16:25:00;1.83;;;1.40;;
4313;SDS011;2170;48.794;9.182;2023-09-18T16:27:28;1.80;;;1.50;;
4313;SDS011;2170;48.794;9.182;2023-09-18T16:29:55;2.93;;;1.70;;
4313;SDS011;2170;48.794;9.182;2023-09-18T16:32:22;3.27;;;1.90;;
4313;SDS011;2170;48.794;9.182;2023-09-18T16:34:50;1.80;;;1.70;;
4313;SDS011;2170;48.794;9.182;2023-09-18T16:37:16;1.77;;;1.53;;
4313;SDS011;2170;48.794;9.182;2023-09-18T16:39:43;2.67;;;1.70;;
4313;SDS011;2170;48.794;9.182;2023-09-18T16:42:10;2.03;;;1.80;;
4313;SDS011;2170;48.794;9.182;2023-09-18T16:44:38;1.70;;;1.40;;
4313;SDS011;2170;48.794;9.182;2023-09-18T16:47:06;1.30;;;1.30;;
4313;SDS011;2170;48.794;9.182;2023-09-18T16:49:33;1.53;;;1.37;;
4313;SDS011;2170;48.794;9.182;2023-09-18T16:52:00;4.10;;;1.63;;
4313;SDS011;2170;48.794;9.182;2023-09-18T16:54:29;3.60;;;1.63;;
4313;SDS011;2170;48.794;9.182;2023-09-18T16:56:56;1.57;;;1.47;;
4313;SDS011;2170;48.794;9.182;2023-09-18T16:59:22;2.30;;;1.43;;
4313;SDS011;2170;48.794;9.182;2023-09-18T17:01:54;2.33;;;1.20;;
4313;SDS011;2170;48.794;9.182;2023-09-18T17:04:20;1.80;;;1.70;;
4313;SDS011;2170;48.794;9.182;2023-09-18T17:06:47;1.97;;;1.77;;
4313;SDS011;2170;48.794;9.182;2023-09-18T17:09:14;1.83;;;1.50;;
4313;SDS011;2170;48.794;9.182;2023-09-18T17:11:41;1.93;;;1.80;;
4313;SDS011;2170;48.794;9.182;2023-09-18T17:14:07;2.17;;;1.60;;
4313;SDS011;2170;48.794;9.182;2023-09-18T17:16:34;1.67;;;1.50;;
4313;SDS011;2170;48.794;9.182;2023-09-18T17:19:02;2.30;;;1.60;;
4313;SDS011;2170;48.794;9.182;2023-09-18T17:21:30;1.90;;;1.70;;
4313;SDS011;2170;48.794;9.182;2023-09-18T17:23:57;4.37;;;2.63;;
4313;SDS011;2170;48.794;9.182;2023-09-18T17:26:24;6.27;;;3.23;;
4313;SDS011;2170;48.794;9.182;2023-09-18T17:28:52;3.07;;;2.83;;
4313;SDS011;2170;48.794;9.182;2023-09-18T17:31:20;5.47;;;2.90;;
4313;SDS011;2170;48.794;9.182;2023-09-18T17:33:47;4.80;;;2.40;;
4313;SDS011;2170;48.794;9.182;2023-09-18T17:36:16;3.23;;;2.93;;
4313;SDS011;2170;48.794;9.182;2023-09-18T17:38:43;4.17;;;3.77;;
4313;SDS011;2170;48.794;9.182;2023-09-18T17:41:11;3.13;;;2.10;;
4313;SDS011;2170;48.794;9.182;2023-09-18T17:43:38;2.63;;;2.30;;
4313;SDS011;2170;48.794;9.182;2023-09-18T17:46:04;2.73;;;2.30;;
4313;SDS011;2170;48.794;9.182;2023-09-18T17:48:31;5.70;;;3.40;;
4313;SDS011;2170;48.794;9.182;2023-09-18T17:50:58;2.40;;;2.20;;
4313;SDS011;2170;48.794;9.182;2023-09-18T17:53:26;2.50;;;2.30;;
4313;SDS011;2170;48.794;9.182;2023-09-18T17:55:53;3.00;;;2.40;;
4313;SDS011;2170;48.794;9.182;2023-09-18T17:58:21;2.97;;;2.03;;
4313;SDS011;2170;48.794;9.182;2023-09-18T18:00:48;2.10;;;1.90;;
4313;SDS011;2170;48.794;9.182;2023-09-18T18:03:18;3.47;;;2.70;;
4313;SDS011;2170;48.794;9.182;2023-09-18T18:05:46;1.53;;;1.40;;
4313;SDS011;2170;48.794;9.182;2023-09-18T18:08:14;1.90;;;1.80;;
4313;SDS011;2170;48.794;9.182;2023-09-18T18:10:42;3.07;;;1.90;;
4313;SDS011;2170;48.794;9.182;2023-09-18T18:13:10;1.90;;;1.80;;
4313;SDS011;2170;48.794;9.182;2023-09-18T18:15:37;2.27;;;2.07;;
4313;SDS011;2170;48.794;9.182;2023-09-18T18:18:04;2.10;;;1.90;;
4313;SDS011;2170;48.794;9.182;2023-09-18T18:20:32;4.37;;;2.37;;
4313;SDS011;2170;48.794;9.182;2023-09-18T18:23:00;2.07;;;1.80;;
4313;SDS011;2170;48.794;9.182;2023-09-18T18:25:29;2.83;;;2.63;;
4313;SDS011;2170;48.794;9.182;2023-09-18T18:27:57;2.20;;;2.00;;
4313;SDS011;2170;48.794;9.182;2023-09-18T18:30:24;2.30;;;1.73;;
4313;SDS011;2170;48.794;9.182;2023-09-18T18:32:51;2.70;;;1.60;;
4313;SDS011;2170;48.794;9.182;2023-09-18T18:35:17;4.20;;;1.93;;
4313;SDS011;2170;48.794;9.182;2023-09-18T18:37:46;2.50;;;1.70;;
4313;SDS011;2170;48.794;9.182;2023-09-18T18:40:14;2.03;;;1.90;;
4313;SDS011;2170;48.794;9.182;2023-09-18T18:42:41;3.03;;;2.03;;
4313;SDS011;2170;48.794;9.182;2023-09-18T18:45:09;2.00;;;1.77;;
4313;SDS011;2170;48.794;9.182;2023-09-18T18:47:38;3.10;;;1.80;;
4313;SDS011;2170;48.794;9.182;2023-09-18T18:50:05;1.70;;;1.60;;
4313;SDS011;2170;48.794;9.182;2023-09-18T18:52:32;2.10;;;1.80;;
4313;SDS011;2170;48.794;9.182;2023-09-18T18:54:59;2.97;;;2.70;;
4313;SDS011;2170;48.794;9.182;2023-09-18T18:57:26;3.13;;;2.30;;
4313;SDS011;2170;48.794;9.182;2023-09-18T18:59:53;4.23;;;2.40;;
4313;SDS011;2170;48.794;9.182;2023-09-18T19:02:21;3.77;;;1.90;;
4313;SDS011;2170;48.794;9.182;2023-09-18T19:04:48;2.27;;;1.90;;
4313;SDS011;2170;48.794;9.182;2023-09-18T19:07:15;2.20;;;2.10;;
4313;SDS011;2170;48.794;9.182;2023-09-18T19:09:44;4.83;;;2.10;;
4313;SDS011;2170;48.794;9.182;2023-09-18T19:12:11;1.83;;;1.73;;
4313;SDS011;2170;48.794;9.182;2023-09-18T19:14:37;1.90;;;1.80;;
4313;SDS011;2170;48.794;9.182;2023-09-18T19:17:03;2.43;;;2.23;;
4313;SDS011;2170;48.794;9.182;2023-09-18T19:19:32;3.23;;;2.23;;
4313;SDS011;2170;48.794;9.182;2023-09-18T19:21:59;2.03;;;1.90;;
4313;SDS011;2170;48.794;9.182;2023-09-18T19:24:25;2.40;;;1.80;;
4313;SDS011;2170;48.794;9.182;2023-09-18T19:26:52;2.57;;;2.00;;
4313;SDS011;2170;48.794;9.182;2023-09-18T19:29:19;3.13;;;1.90;;
4313;SDS011;2170;48.794;9.182;2023-09-18T19:31:46;2.03;;;1.60;;
4313;SDS011;2170;48.794;9.182;2023-09-18T19:34:13;2.03;;;1.83;;
4313;SDS011;2170;48.794;9.182;2023-09-18T19:36:42;1.70;;;1.60;;
4313;SDS011;2170;48.794;9.182;2023-09-18T19:39:13;3.07;;;1.40;;
4313;SDS011;2170;48.794;9.182;2023-09-18T19:41:39;1.40;;;1.30;;
4313;SDS011;2170;48.794;9.182;2023-09-18T19:44:06;2.83;;;1.80;;
4313;SDS011;2170;48.794;9.182;2023-09-18T19:46:33;1.50;;;1.40;;
4313;SDS011;2170;48.794;9.182;2023-09-18T19:49:00;2.07;;;1.97;;
4313;SDS011;2170;48.794;9.182;2023-09-18T19:51:29;2.57;;;1.30;;
4313;SDS011;2170;48.794;9.182;2023-09-18T19:53:58;2.43;;;1.60;;
4313;SDS011;2170;48.794;9.182;2023-09-18T19:56:25;2.10;;;1.27;;
4313;SDS011;2170;48.794;9.182;2023-09-18T19:58:55;1.40;;;1.30;;
4313;SDS011;2170;48.794;9.182;2023-09-18T20:01:22;1.53;;;1.40;;
4313;SDS011;2170;48.794;9.182;2023-09-18T20:03:49;2.00;;;1.20;;
4313;SDS011;2170;48.794;9.182;2023-09-18T20:06:16;1.00;;;0.90;;
4313;SDS011;2170;48.794;9.182;2023-09-18T20:08:42;1.53;;;1.03;;
4313;SDS011;2170;48.794;9.182;2023-09-18T20:11:10;1.87;;;1.43;;
4313;SDS011;2170;48.794;9.182;2023-09-18T20:13:37;2.00;;;1.20;;
4313;SDS011;2170;48.794;9.182;2023-09-18T20:16:04;1.30;;;1.20;;
4313;SDS011;2170;48.794;9.182;2023-09-18T20:18:31;2.60;;;1.70;;
4313;SDS011;2170;48.794;9.182;2023-09-18T20:20:58;2.00;;;1.00;;
4313;SDS011;2170;48.794;9.182;2023-09-18T20:23:26;1.10;;;1.10;;
4313;SDS011;2170;48.794;9.182;2023-09-18T20:25:54;6.27;;;1.60;;
4313;SDS011;2170;48.794;9.182;2023-09-18T20:28:23;1.20;;;1.17;;
4313;SDS011;2170;48.794;9.182;2023-09-18T20:30:50;1.57;;;1.47;;
4313;SDS011;2170;48.794;9.182;2023-09-18T20:33:17;1.20;;;1.17;;
4313;SDS011;2170;48.794;9.182;2023-09-18T20:35:44;1.53;;;1.03;;
4313;SDS011;2170;48.794;9.182;2023-09-18T20:38:11;1.07;;;0.90;;
4313;SDS011;2170;48.794;9.182;2023-09-18T20:40:37;2.10;;;0.93;;
4313;SDS011;2170;48.794;9.182;2023-09-18T20:43:06;1.23;;;0.90;;
4313;SDS011;2170;48.794;9.182;2023-09-18T20:45:34;1.23;;;1.13;;
4313;SDS011;2170;48.794;9.182;2023-09-18T20:48:03;2.30;;;0.70;;
4313;SDS011;2170;48.794;9.182;2023-09-18T20:50:31;2.03;;;1.40;;
4313;SDS011;2170;48.794;9.182;2023-09-18T20:52:59;0.90;;;0.90;;
4313;SDS011;2170;48.794;9.182;2023-09-18T20:55:26;1.27;;;1.17;;
4313;SDS011;2170;48.794;9.182;2023-09-18T20:58:12;0.87;;;0.80;;
4313;SDS011;2170;48.794;9.182;2023-09-18T21:00:40;1.07;;;1.07;;
4313;SDS011;2170;48.794;9.182;2023-09-18T21:03:06;1.10;;;1.00;;
4313;SDS011;2170;48.794;9.182;2023-09-18T21:05:33;1.00;;;0.90;;
4313;SDS011;2170;48.794;9.182;2023-09-18T21:08:00;1.33;;;1.07;;
4313;SDS011;2170;48.794;9.182;2023-09-18T21:10:27;0.80;;;0.80;;
4313;SDS011;2170;48.794;9.182;2023-09-18T21:12:54;1.20;;;1.10;;
4313;SDS011;2170;48.794;9.182;2023-09-18T21:15:21;1.07;;;0.97;;
4313;SDS011;2170;48.794;9.182;2023-09-18T21:17:49;0.80;;;0.80;;
4313;SDS011;2170;48.794;9.182;2023-09-18T21:20:16;0.80;;;0.80;;